Terminal Aerodrome Forecast
Issued by NWS Tampa Bay Area, FL

Home | Current Version | Previous Version | Text Only | Print | Product List | Glossary On
Versions: 1 2 3 4 5 6 7 8 9 10 11 12 13 14 15 16 17 18 19 20 21 22 23 24 25 26 27
000
FTUS42 KTBW 010522
TAFTPA
TAF
KTPA 010522Z 0106/0206 VRB03KT P6SM FEW035 SCT100
     FM010900 VRB03KT P6SM FEW250
     FM011400 03004KT P6SM SCT025 SCT250
     FM011600 23005KT P6SM SCT035 SCT250
     FM012100 32006KT P6SM VCTS SCT040CB SCT250
     FM020100 03004KT P6SM SCT040 SCT250=

USA.gov is the U.S. government's official web portal to all federal, state and local government web resources and services.